sensor_id;sensor_type;location;lat;lon;timestamp;pressure;altitude;pressure_sealevel;temperature;humidity
54936;BME280;40838;50.676;7.838;2023-01-25T00:02:14;100149.28;;;-0.33;100.00
54936;BME280;40838;50.676;7.838;2023-01-25T00:04:42;100148.47;;;0.48;100.00
54936;BME280;40838;50.676;7.838;2023-01-25T00:07:09;100144.56;;;0.28;100.00
54936;BME280;40838;50.676;7.838;2023-01-25T00:09:36;100138.00;;;-0.25;100.00
54936;BME280;40838;50.676;7.838;2023-01-25T00:12:03;100141.81;;;0.29;100.00
54936;BME280;40838;50.676;7.838;2023-01-25T00:14:35;100130.06;;;-0.66;100.00
54936;BME280;40838;50.676;7.838;2023-01-25T00:17:02;100131.22;;;-0.61;100.00
54936;BME280;40838;50.676;7.838;2023-01-25T00:19:29;100128.09;;;-0.56;100.00
54936;BME280;40838;50.676;7.838;2023-01-25T00:21:56;100118.47;;;0.59;100.00
54936;BME280;40838;50.676;7.838;2023-01-25T00:24:30;100121.59;;;0.54;100.00
54936;BME280;40838;50.676;7.838;2023-01-25T00:26:57;100121.88;;;-0.63;100.00
54936;BME280;40838;50.676;7.838;2023-01-25T00:29:24;100125.22;;;-0.28;100.00
54936;BME280;40838;50.676;7.838;2023-01-25T00:32:03;100129.28;;;-0.42;100.00
54936;BME280;40838;50.676;7.838;2023-01-25T00:34:44;100121.81;;;-0.04;100.00
54936;BME280;40838;50.676;7.838;2023-01-25T00:37:18;100116.22;;;0.31;100.00
54936;BME280;40838;50.676;7.838;2023-01-25T00:39:46;100115.69;;;-0.46;100.00
54936;BME280;40838;50.676;7.838;2023-01-25T00:42:14;100114.59;;;0.39;100.00
54936;BME280;40838;50.676;7.838;2023-01-25T00:44:43;100109.94;;;0.57;100.00
54936;BME280;40838;50.676;7.838;2023-01-25T00:47:11;100105.38;;;0.90;100.00
54936;BME280;40838;50.676;7.838;2023-01-25T00:49:40;100116.97;;;0.73;100.00
54936;BME280;40838;50.676;7.838;2023-01-25T00:52:08;100104.75;;;-0.17;100.00
54936;BME280;40838;50.676;7.838;2023-01-25T00:54:34;100109.78;;;0.58;100.00
54936;BME280;40838;50.676;7.838;2023-01-25T00:57:02;100102.47;;;0.93;100.00
54936;BME280;40838;50.676;7.838;2023-01-25T00:59:30;100105.56;;;0.33;100.00
54936;BME280;40838;50.676;7.838;2023-01-25T01:01:57;100110.19;;;-0.93;100.00
54936;BME280;40838;50.676;7.838;2023-01-25T01:04:25;100101.66;;;0.21;100.00
54936;BME280;40838;50.676;7.838;2023-01-25T01:06:53;100113.97;;;0.12;100.00
54936;BME280;40838;50.676;7.838;2023-01-25T01:09:21;100108.38;;;-0.01;100.00
54936;BME280;40838;50.676;7.838;2023-01-25T01:11:51;100107.75;;;-1.29;100.00
54936;BME280;40838;50.676;7.838;2023-01-25T01:14:18;100107.66;;;-1.19;100.00
54936;BME280;40838;50.676;7.838;2023-01-25T01:16:45;100106.38;;;-0.48;100.00
54936;BME280;40838;50.676;7.838;2023-01-25T01:19:18;100101.47;;;-0.51;100.00
54936;BME280;40838;50.676;7.838;2023-01-25T01:21:47;100108.44;;;-0.68;100.00
54936;BME280;40838;50.676;7.838;2023-01-25T01:24:15;100105.03;;;-1.19;100.00
54936;BME280;40838;50.676;7.838;2023-01-25T01:26:44;100099.03;;;-1.72;100.00
54936;BME280;40838;50.676;7.838;2023-01-25T01:29:12;100099.28;;;-0.72;100.00
54936;BME280;40838;50.676;7.838;2023-01-25T01:31:39;100094.78;;;0.20;100.00
54936;BME280;40838;50.676;7.838;2023-01-25T01:34:18;100090.13;;;-0.77;100.00
54936;BME280;40838;50.676;7.838;2023-01-25T01:36:46;100095.13;;;-0.33;100.00
54936;BME280;40838;50.676;7.838;2023-01-25T01:39:14;100101.31;;;-0.25;100.00
54936;BME280;40838;50.676;7.838;2023-01-25T01:41:41;100097.25;;;0.13;100.00
54936;BME280;40838;50.676;7.838;2023-01-25T01:44:15;100102.31;;;-1.02;100.00
54936;BME280;40838;50.676;7.838;2023-01-25T01:46:50;100090.47;;;-0.63;100.00
54936;BME280;40838;50.676;7.838;2023-01-25T01:49:23;100100.34;;;-0.33;100.00
54936;BME280;40838;50.676;7.838;2023-01-25T01:52:00;100100.00;;;0.28;100.00
54936;BME280;40838;50.676;7.838;2023-01-25T01:54:35;100095.09;;;-0.08;100.00
54936;BME280;40838;50.676;7.838;2023-01-25T01:57:08;100095.03;;;0.57;100.00
54936;BME280;40838;50.676;7.838;2023-01-25T01:59:45;100101.47;;;0.39;100.00
54936;BME280;40838;50.676;7.838;2023-01-25T02:02:14;100095.44;;;0.22;100.00
54936;BME280;40838;50.676;7.838;2023-01-25T02:04:45;100099.88;;;0.13;100.00
54936;BME280;40838;50.676;7.838;2023-01-25T02:07:24;100087.00;;;0.51;100.00
54936;BME280;40838;50.676;7.838;2023-01-25T02:09:55;100085.84;;;0.62;100.00
54936;BME280;40838;50.676;7.838;2023-01-25T02:12:23;100090.78;;;0.48;100.00
54936;BME280;40838;50.676;7.838;2023-01-25T02:14:52;100084.69;;;-1.00;100.00
54936;BME280;40838;50.676;7.838;2023-01-25T02:17:23;100086.03;;;-0.79;100.00
54936;BME280;40838;50.676;7.838;2023-01-25T02:19:56;100088.84;;;-0.48;100.00
54936;BME280;40838;50.676;7.838;2023-01-25T02:22:31;100081.00;;;-0.48;100.00
54936;BME280;40838;50.676;7.838;2023-01-25T02:25:06;100076.97;;;0.63;100.00
54936;BME280;40838;50.676;7.838;2023-01-25T02:27:36;100085.81;;;0.06;100.00
54936;BME280;40838;50.676;7.838;2023-01-25T02:30:05;100088.38;;;-0.43;100.00
54936;BME280;40838;50.676;7.838;2023-01-25T02:32:32;100084.25;;;0.44;100.00
54936;BME280;40838;50.676;7.838;2023-01-25T02:34:59;100086.41;;;-1.16;100.00
54936;BME280;40838;50.676;7.838;2023-01-25T02:37:26;100077.50;;;-0.89;100.00
54936;BME280;40838;50.676;7.838;2023-01-25T02:39:54;100082.13;;;-0.67;100.00
54936;BME280;40838;50.676;7.838;2023-01-25T02:42:29;100077.56;;;-0.65;100.00
54936;BME280;40838;50.676;7.838;2023-01-25T02:44:57;100080.13;;;-1.32;100.00
54936;BME280;40838;50.676;7.838;2023-01-25T02:47:24;100084.00;;;-1.02;100.00
54936;BME280;40838;50.676;7.838;2023-01-25T02:49:51;100084.09;;;-1.19;100.00
54936;BME280;40838;50.676;7.838;2023-01-25T02:52:18;100079.88;;;-1.12;100.00
54936;BME280;40838;50.676;7.838;2023-01-25T02:54:45;100067.25;;;-0.58;100.00
54936;BME280;40838;50.676;7.838;2023-01-25T02:57:15;100066.94;;;-0.14;100.00
54936;BME280;40838;50.676;7.838;2023-01-25T02:59:45;100060.50;;;-0.85;100.00
54936;BME280;40838;50.676;7.838;2023-01-25T03:02:13;100067.53;;;-1.36;100.00
54936;BME280;40838;50.676;7.838;2023-01-25T03:04:41;100070.38;;;-0.22;100.00
54936;BME280;40838;50.676;7.838;2023-01-25T03:07:08;100067.75;;;0.19;100.00
54936;BME280;40838;50.676;7.838;2023-01-25T03:09:35;100058.09;;;-0.46;100.00
54936;BME280;40838;50.676;7.838;2023-01-25T03:12:02;100060.59;;;-1.03;100.00
54936;BME280;40838;50.676;7.838;2023-01-25T03:14:33;100064.50;;;-0.40;100.00
54936;BME280;40838;50.676;7.838;2023-01-25T03:17:05;100068.09;;;0.08;100.00
54936;BME280;40838;50.676;7.838;2023-01-25T03:19:32;100065.47;;;-0.09;100.00
54936;BME280;40838;50.676;7.838;2023-01-25T03:22:22;100054.97;;;0.08;100.00
54936;BME280;40838;50.676;7.838;2023-01-25T03:24:49;100062.97;;;0.31;100.00
54936;BME280;40838;50.676;7.838;2023-01-25T03:27:16;100056.25;;;0.36;100.00
54936;BME280;40838;50.676;7.838;2023-01-25T03:29:50;100055.31;;;-0.20;100.00
54936;BME280;40838;50.676;7.838;2023-01-25T03:32:27;100061.84;;;-1.24;100.00
54936;BME280;40838;50.676;7.838;2023-01-25T03:34:54;100048.97;;;-1.09;100.00
54936;BME280;40838;50.676;7.838;2023-01-25T03:37:21;100044.88;;;-1.19;100.00
54936;BME280;40838;50.676;7.838;2023-01-25T03:39:48;100052.06;;;0.03;100.00
54936;BME280;40838;50.676;7.838;2023-01-25T03:42:18;100032.75;;;0.51;100.00
54936;BME280;40838;50.676;7.838;2023-01-25T03:44:52;100033.38;;;-0.27;100.00
54936;BME280;40838;50.676;7.838;2023-01-25T03:47:19;100042.38;;;-0.79;100.00
54936;BME280;40838;50.676;7.838;2023-01-25T03:49:48;100038.84;;;-1.20;100.00
54936;BME280;40838;50.676;7.838;2023-01-25T03:52:17;100031.00;;;-1.04;100.00
54936;BME280;40838;50.676;7.838;2023-01-25T03:54:45;100028.13;;;-0.68;100.00
54936;BME280;40838;50.676;7.838;2023-01-25T03:57:12;100033.69;;;-0.87;100.00
54936;BME280;40838;50.676;7.838;2023-01-25T03:59:48;100030.34;;;-1.14;100.00
54936;BME280;40838;50.676;7.838;2023-01-25T04:02:18;100027.06;;;-1.58;100.00
54936;BME280;40838;50.676;7.838;2023-01-25T04:04:45;100024.16;;;-1.55;100.00
54936;BME280;40838;50.676;7.838;2023-01-25T04:07:18;100020.69;;;-1.64;100.00
54936;BME280;40838;50.676;7.838;2023-01-25T04:09:46;100019.38;;;-1.09;100.00
54936;BME280;40838;50.676;7.838;2023-01-25T04:12:14;100014.25;;;-0.77;100.00
54936;BME280;40838;50.676;7.838;2023-01-25T04:14:41;100005.41;;;-0.75;100.00
54936;BME280;40838;50.676;7.838;2023-01-25T04:17:08;100009.38;;;0.33;100.00
54936;BME280;40838;50.676;7.838;2023-01-25T04:19:45;100003.81;;;0.28;100.00
54936;BME280;40838;50.676;7.838;2023-01-25T04:22:17;100000.75;;;0.64;100.00
54936;BME280;40838;50.676;7.838;2023-01-25T04:24:46;100004.94;;;0.42;100.00
54936;BME280;40838;50.676;7.838;2023-01-25T04:27:13;99994.69;;;0.24;100.00
54936;BME280;40838;50.676;7.838;2023-01-25T04:29:51;99998.44;;;0.22;100.00
54936;BME280;40838;50.676;7.838;2023-01-25T04:32:21;99998.16;;;0.56;100.00
54936;BME280;40838;50.676;7.838;2023-01-25T04:34:49;100004.00;;;0.27;100.00
54936;BME280;40838;50.676;7.838;2023-01-25T04:37:22;100003.50;;;0.71;100.00
54936;BME280;40838;50.676;7.838;2023-01-25T04:39:56;99991.59;;;0.91;100.00
54936;BME280;40838;50.676;7.838;2023-01-25T04:42:23;99992.72;;;0.26;100.00
54936;BME280;40838;50.676;7.838;2023-01-25T04:44:54;99993.59;;;-0.96;100.00
54936;BME280;40838;50.676;7.838;2023-01-25T04:47:22;99996.66;;;-1.59;100.00
54936;BME280;40838;50.676;7.838;2023-01-25T04:49:49;99996.31;;;-1.73;100.00
54936;BME280;40838;50.676;7.838;2023-01-25T04:52:20;99991.50;;;-0.60;100.00
54936;BME280;40838;50.676;7.838;2023-01-25T04:54:50;99996.34;;;-0.97;100.00
54936;BME280;40838;50.676;7.838;2023-01-25T04:57:17;99991.81;;;-0.38;100.00
54936;BME280;40838;50.676;7.838;2023-01-25T04:59:50;99987.03;;;0.06;100.00
54936;BME280;40838;50.676;7.838;2023-01-25T05:02:18;99982.16;;;0.74;100.00
54936;BME280;40838;50.676;7.838;2023-01-25T05:04:46;99987.56;;;0.72;100.00
54936;BME280;40838;50.676;7.838;2023-01-25T05:07:12;99980.72;;;0.32;100.00
54936;BME280;40838;50.676;7.838;2023-01-25T05:09:41;99981.66;;;-0.90;100.00
54936;BME280;40838;50.676;7.838;2023-01-25T05:12:10;99988.69;;;-0.42;100.00
54936;BME280;40838;50.676;7.838;2023-01-25T05:14:52;99981.84;;;-0.35;100.00
54936;BME280;40838;50.676;7.838;2023-01-25T05:17:20;99973.78;;;-0.00;100.00
54936;BME280;40838;50.676;7.838;2023-01-25T05:19:47;99974.91;;;-1.09;100.00
54936;BME280;40838;50.676;7.838;2023-01-25T05:22:18;99962.28;;;0.48;100.00
54936;BME280;40838;50.676;7.838;2023-01-25T05:24:49;99971.53;;;-0.85;100.00
54936;BME280;40838;50.676;7.838;2023-01-25T05:27:21;99966.94;;;-1.66;100.00
54936;BME280;40838;50.676;7.838;2023-01-25T05:30:08;99969.91;;;-2.22;100.00
54936;BME280;40838;50.676;7.838;2023-01-25T05:32:55;99961.28;;;-2.14;100.00
54936;BME280;40838;50.676;7.838;2023-01-25T05:35:23;99963.53;;;-1.93;100.00
54936;BME280;40838;50.676;7.838;2023-01-25T05:37:55;99962.41;;;-1.91;100.00
54936;BME280;40838;50.676;7.838;2023-01-25T05:40:22;99955.19;;;-2.75;100.00
54936;BME280;40838;50.676;7.838;2023-01-25T05:42:55;99965.47;;;-2.91;100.00
54936;BME280;40838;50.676;7.838;2023-01-25T05:45:23;99961.34;;;-1.72;100.00
54936;BME280;40838;50.676;7.838;2023-01-25T05:48:04;99969.84;;;-2.30;100.00
54936;BME280;40838;50.676;7.838;2023-01-25T05:50:31;99966.34;;;-1.86;100.00
54936;BME280;40838;50.676;7.838;2023-01-25T05:53:09;99967.59;;;-2.25;100.00
54936;BME280;40838;50.676;7.838;2023-01-25T05:55:38;99962.47;;;-2.34;100.00
54936;BME280;40838;50.676;7.838;2023-01-25T05:58:10;99955.50;;;-2.00;100.00
54936;BME280;40838;50.676;7.838;2023-01-25T06:00:37;99962.47;;;-2.34;100.00
54936;BME280;40838;50.676;7.838;2023-01-25T06:03:04;99958.91;;;-0.98;100.00
54936;BME280;40838;50.676;7.838;2023-01-25T06:05:34;99963.31;;;-2.08;100.00
54936;BME280;40838;50.676;7.838;2023-01-25T06:08:03;99958.78;;;-1.98;100.00
54936;BME280;40838;50.676;7.838;2023-01-25T06:10:45;99955.41;;;-1.82;100.00
54936;BME280;40838;50.676;7.838;2023-01-25T06:13:13;99951.56;;;-0.45;100.00
54936;BME280;40838;50.676;7.838;2023-01-25T06:15:41;99945.44;;;0.03;100.00
54936;BME280;40838;50.676;7.838;2023-01-25T06:18:29;99940.28;;;0.57;100.00
54936;BME280;40838;50.676;7.838;2023-01-25T06:21:15;99948.53;;;0.07;100.00
54936;BME280;40838;50.676;7.838;2023-01-25T06:23:42;99949.91;;;0.34;100.00
54936;BME280;40838;50.676;7.838;2023-01-25T06:26:12;99945.97;;;0.38;100.00
54936;BME280;40838;50.676;7.838;2023-01-25T06:28:42;99939.53;;;0.09;100.00
54936;BME280;40838;50.676;7.838;2023-01-25T06:31:11;99941.31;;;0.48;100.00
54936;BME280;40838;50.676;7.838;2023-01-25T06:33:39;99947.41;;;-0.07;100.00
54936;BME280;40838;50.676;7.838;2023-01-25T06:36:11;99943.47;;;-0.11;100.00
54936;BME280;40838;50.676;7.838;2023-01-25T06:38:38;99949.06;;;-1.29;100.00
54936;BME280;40838;50.676;7.838;2023-01-25T06:41:06;99952.06;;;-0.99;100.00
54936;BME280;40838;50.676;7.838;2023-01-25T06:43:33;99950.63;;;-1.95;100.00
54936;BME280;40838;50.676;7.838;2023-01-25T06:46:03;99942.22;;;-1.13;100.00
54936;BME280;40838;50.676;7.838;2023-01-25T06:48:36;99948.41;;;-2.16;100.00
54936;BME280;40838;50.676;7.838;2023-01-25T06:51:04;99948.47;;;-2.33;100.00
54936;BME280;40838;50.676;7.838;2023-01-25T06:53:33;99933.06;;;-1.76;100.00
54936;BME280;40838;50.676;7.838;2023-01-25T06:56:05;99937.09;;;-0.00;100.00
54936;BME280;40838;50.676;7.838;2023-01-25T06:58:35;99936.88;;;0.18;100.00
54936;BME280;40838;50.676;7.838;2023-01-25T07:01:05;99937.31;;;-0.35;100.00
54936;BME280;40838;50.676;7.838;2023-01-25T07:03:39;99937.03;;;-0.64;100.00
54936;BME280;40838;50.676;7.838;2023-01-25T07:06:08;99938.31;;;-1.68;100.00
54936;BME280;40838;50.676;7.838;2023-01-25T07:08:36;99939.13;;;-1.17;100.00
54936;BME280;40838;50.676;7.838;2023-01-25T07:11:05;99935.84;;;-0.45;100.00
54936;BME280;40838;50.676;7.838;2023-01-25T07:13:34;99939.63;;;-0.89;100.00
54936;BME280;40838;50.676;7.838;2023-01-25T07:16:04;99940.78;;;-0.59;100.00
54936;BME280;40838;50.676;7.838;2023-01-25T07:18:36;99942.25;;;-0.72;100.00
54936;BME280;40838;50.676;7.838;2023-01-25T07:21:04;99937.31;;;-0.35;100.00
54936;BME280;40838;50.676;7.838;2023-01-25T07:23:32;99933.88;;;0.29;100.00
54936;BME280;40838;50.676;7.838;2023-01-25T07:26:00;99931.66;;;0.72;100.00
54936;BME280;40838;50.676;7.838;2023-01-25T07:28:27;99929.75;;;-0.21;100.00
54936;BME280;40838;50.676;7.838;2023-01-25T07:31:04;99933.09;;;-0.52;100.00
54936;BME280;40838;50.676;7.838;2023-01-25T07:33:31;99930.47;;;-0.68;100.00
54936;BME280;40838;50.676;7.838;2023-01-25T07:35:59;99932.78;;;-0.73;100.00
54936;BME280;40838;50.676;7.838;2023-01-25T07:38:26;99937.66;;;-1.19;100.00
54936;BME280;40838;50.676;7.838;2023-01-25T07:40:54;99944.56;;;-0.53;100.00
54936;BME280;40838;50.676;7.838;2023-01-25T07:43:21;99938.66;;;-0.96;100.00
54936;BME280;40838;50.676;7.838;2023-01-25T07:45:50;99932.25;;;-1.18;100.00
54936;BME280;40838;50.676;7.838;2023-01-25T07:48:19;99938.56;;;-1.45;100.00
54936;BME280;40838;50.676;7.838;2023-01-25T07:50:46;99936.03;;;-1.04;100.00
54936;BME280;40838;50.676;7.838;2023-01-25T07:53:16;99945.69;;;-0.72;100.00
54936;BME280;40838;50.676;7.838;2023-01-25T07:55:43;99941.91;;;-0.37;100.00
54936;BME280;40838;50.676;7.838;2023-01-25T07:58:10;99940.06;;;-0.20;100.00
54936;BME280;40838;50.676;7.838;2023-01-25T08:00:37;99937.50;;;-1.02;100.00
54936;BME280;40838;50.676;7.838;2023-01-25T08:03:04;99939.53;;;-1.88;100.00
54936;BME280;40838;50.676;7.838;2023-01-25T08:05:33;99941.03;;;-1.43;100.00
54936;BME280;40838;50.676;7.838;2023-01-25T08:08:00;99938.06;;;-1.99;100.00
54936;BME280;40838;50.676;7.838;2023-01-25T08:10:28;99938.94;;;-1.15;100.00
54936;BME280;40838;50.676;7.838;2023-01-25T08:12:57;99927.94;;;-0.04;100.00
54936;BME280;40838;50.676;7.838;2023-01-25T08:15:24;99937.50;;;0.20;100.00
54936;BME280;40838;50.676;7.838;2023-01-25T08:17:51;99933.66;;;-0.09;100.00
54936;BME280;40838;50.676;7.838;2023-01-25T08:20:18;99942.06;;;0.26;100.00
54936;BME280;40838;50.676;7.838;2023-01-25T08:22:48;99938.72;;;0.40;100.00
54936;BME280;40838;50.676;7.838;2023-01-25T08:25:15;99942.25;;;-0.72;100.00
54936;BME280;40838;50.676;7.838;2023-01-25T08:27:42;99945.19;;;-0.84;100.00
54936;BME280;40838;50.676;7.838;2023-01-25T08:30:10;99948.56;;;-1.40;100.00
54936;BME280;40838;50.676;7.838;2023-01-25T08:32:37;99940.16;;;-1.60;100.00
54936;BME280;40838;50.676;7.838;2023-01-25T08:35:05;99934.63;;;-0.02;100.00
54936;BME280;40838;50.676;7.838;2023-01-25T08:37:34;99933.16;;;0.04;100.00
54936;BME280;40838;50.676;7.838;2023-01-25T08:40:03;99931.44;;;0.58;100.00
54936;BME280;40838;50.676;7.838;2023-01-25T08:42:32;99932.34;;;-0.05;100.00
54936;BME280;40838;50.676;7.838;2023-01-25T08:44:59;99924.31;;;0.44;100.00
54936;BME280;40838;50.676;7.838;2023-01-25T08:47:27;99927.22;;;0.49;100.00
54936;BME280;40838;50.676;7.838;2023-01-25T08:49:56;99924.09;;;0.77;100.00
54936;BME280;40838;50.676;7.838;2023-01-25T08:52:23;99912.56;;;0.86;100.00
54936;BME280;40838;50.676;7.838;2023-01-25T08:54:49;99915.81;;;0.65;100.00
54936;BME280;40838;50.676;7.838;2023-01-25T08:57:20;99917.69;;;0.56;100.00
54936;BME280;40838;50.676;7.838;2023-01-25T08:59:47;99914.75;;;0.51;100.00
54936;BME280;40838;50.676;7.838;2023-01-25T09:02:14;99904.56;;;0.56;100.00
54936;BME280;40838;50.676;7.838;2023-01-25T09:04:41;99899.97;;;0.58;100.00
54936;BME280;40838;50.676;7.838;2023-01-25T09:07:13;99906.22;;;-0.38;100.00
54936;BME280;40838;50.676;7.838;2023-01-25T09:09:40;99914.44;;;-1.73;100.00
54936;BME280;40838;50.676;7.838;2023-01-25T09:12:08;99914.81;;;-2.02;100.00
54936;BME280;40838;50.676;7.838;2023-01-25T09:14:36;99910.81;;;-2.75;100.00
54936;BME280;40838;50.676;7.838;2023-01-25T09:17:08;99910.16;;;-2.25;100.00
54936;BME280;40838;50.676;7.838;2023-01-25T09:19:36;99917.06;;;-2.16;100.00
54936;BME280;40838;50.676;7.838;2023-01-25T09:22:07;99912.31;;;-3.08;100.00
54936;BME280;40838;50.676;7.838;2023-01-25T09:24:33;99914.34;;;-3.02;100.00
54936;BME280;40838;50.676;7.838;2023-01-25T09:27:02;99909.25;;;-2.86;100.00
54936;BME280;40838;50.676;7.838;2023-01-25T09:29:28;99904.47;;;-2.46;100.00
54936;BME280;40838;50.676;7.838;2023-01-25T09:31:57;99902.66;;;-1.35;100.00
54936;BME280;40838;50.676;7.838;2023-01-25T09:34:29;99900.06;;;-1.02;100.00
54936;BME280;40838;50.676;7.838;2023-01-25T09:36:56;99899.38;;;-0.55;100.00
54936;BME280;40838;50.676;7.838;2023-01-25T09:39:23;99893.81;;;-0.52;100.00
54936;BME280;40838;50.676;7.838;2023-01-25T09:42:21;99902.38;;;-0.91;100.00
54936;BME280;40838;50.676;7.838;2023-01-25T09:45:10;99900.72;;;-1.16;100.00
54936;BME280;40838;50.676;7.838;2023-01-25T09:47:44;99897.03;;;-1.56;100.00
54936;BME280;40838;50.676;7.838;2023-01-25T09:50:30;99897.28;;;-0.84;100.00
54936;BME280;40838;50.676;7.838;2023-01-25T09:53:18;99884.84;;;0.06;100.00
54936;BME280;40838;50.676;7.838;2023-01-25T09:55:51;99890.53;;;-0.46;100.00
54936;BME280;40838;50.676;7.838;2023-01-25T09:58:27;99898.56;;;-1.13;100.00
54936;BME280;40838;50.676;7.838;2023-01-25T10:01:06;99878.72;;;-1.64;100.00
54936;BME280;40838;50.676;7.838;2023-01-25T10:03:42;99884.69;;;-0.89;100.00
54936;BME280;40838;50.676;7.838;2023-01-25T10:06:12;99868.53;;;-0.20;100.00
54936;BME280;40838;50.676;7.838;2023-01-25T10:08:47;99864.13;;;-0.36;100.00
54936;BME280;40838;50.676;7.838;2023-01-25T10:11:20;99860.81;;;-0.22;100.00
54936;BME280;40838;50.676;7.838;2023-01-25T10:13:49;99856.84;;;-0.01;100.00
54936;BME280;40838;50.676;7.838;2023-01-25T10:16:21;99860.38;;;0.14;100.00
54936;BME280;40838;50.676;7.838;2023-01-25T10:18:58;99847.69;;;0.26;100.00
54936;BME280;40838;50.676;7.838;2023-01-25T10:21:34;99845.50;;;0.15;100.00
54936;BME280;40838;50.676;7.838;2023-01-25T10:24:13;99841.84;;;0.70;99.88
54936;BME280;40838;50.676;7.838;2023-01-25T10:26:51;99828.94;;;0.37;100.00
54936;BME280;40838;50.676;7.838;2023-01-25T10:29:22;99837.81;;;0.36;100.00
54936;BME280;40838;50.676;7.838;2023-01-25T10:31:54;99842.13;;;-0.11;100.00
54936;BME280;40838;50.676;7.838;2023-01-25T10:34:30;99831.88;;;0.88;99.69
54936;BME280;40838;50.676;7.838;2023-01-25T10:37:01;99834.88;;;1.00;99.01
54936;BME280;40838;50.676;7.838;2023-01-25T10:39:32;99832.78;;;0.95;98.92
54936;BME280;40838;50.676;7.838;2023-01-25T10:42:06;99824.81;;;0.89;100.00
54936;BME280;40838;50.676;7.838;2023-01-25T10:44:35;99817.25;;;0.71;100.00
54936;BME280;40838;50.676;7.838;2023-01-25T10:47:06;99816.84;;;0.82;100.00
54936;BME280;40838;50.676;7.838;2023-01-25T10:49:45;99813.25;;;0.98;99.23
54936;BME280;40838;50.676;7.838;2023-01-25T10:52:22;99806.00;;;0.85;99.74
54936;BME280;40838;50.676;7.838;2023-01-25T10:55:06;99804.06;;;1.17;98.57
54936;BME280;40838;50.676;7.838;2023-01-25T10:57:41;99799.34;;;0.74;98.89
54936;BME280;40838;50.676;7.838;2023-01-25T11:00:19;99802.47;;;1.08;98.23
54936;BME280;40838;50.676;7.838;2023-01-25T11:02:48;99791.97;;;0.09;100.00
54936;BME280;40838;50.676;7.838;2023-01-25T11:05:30;99787.25;;;0.50;100.00
54936;BME280;40838;50.676;7.838;2023-01-25T11:07:58;99789.56;;;0.22;100.00
54936;BME280;40838;50.676;7.838;2023-01-25T11:10:28;99788.09;;;0.20;100.00
54936;BME280;40838;50.676;7.838;2023-01-25T11:13:21;99786.53;;;0.79;98.90
54936;BME280;40838;50.676;7.838;2023-01-25T11:15:50;99780.50;;;1.09;96.81
54936;BME280;40838;50.676;7.838;2023-01-25T11:18:20;99770.66;;;1.25;97.33
54936;BME280;40838;50.676;7.838;2023-01-25T11:21:03;99765.81;;;0.85;100.00
54936;BME280;40838;50.676;7.838;2023-01-25T11:23:33;99770.41;;;0.68;100.00
54936;BME280;40838;50.676;7.838;2023-01-25T11:26:15;99766.69;;;0.77;100.00
54936;BME280;40838;50.676;7.838;2023-01-25T11:28:43;99766.75;;;1.36;96.74
54936;BME280;40838;50.676;7.838;2023-01-25T11:31:12;99759.13;;;1.56;94.90
54936;BME280;40838;50.676;7.838;2023-01-25T11:33:39;99763.59;;;0.58;97.51
54936;BME280;40838;50.676;7.838;2023-01-25T11:36:18;99771.22;;;-0.96;100.00
54936;BME280;40838;50.676;7.838;2023-01-25T11:38:59;99759.19;;;-0.66;100.00
54936;BME280;40838;50.676;7.838;2023-01-25T11:41:33;99758.75;;;0.01;100.00
54936;BME280;40838;50.676;7.838;2023-01-25T11:44:15;99747.00;;;0.58;100.00
54936;BME280;40838;50.676;7.838;2023-01-25T11:46:55;99741.59;;;-0.41;100.00
54936;BME280;40838;50.676;7.838;2023-01-25T11:49:32;99738.75;;;0.08;100.00
54936;BME280;40838;50.676;7.838;2023-01-25T11:52:10;99738.91;;;-0.64;100.00
54936;BME280;40838;50.676;7.838;2023-01-25T11:54:47;99729.19;;;-0.94;100.00
54936;BME280;40838;50.676;7.838;2023-01-25T11:57:35;99714.38;;;-0.71;100.00
54936;BME280;40838;50.676;7.838;2023-01-25T12:00:20;99721.25;;;-0.62;100.00
54936;BME280;40838;50.676;7.838;2023-01-25T12:05:59;99715.84;;;0.78;97.94
54936;BME280;40838;50.676;7.838;2023-01-25T12:08:39;99710.47;;;0.19;100.00
54936;BME280;40838;50.676;7.838;2023-01-25T12:11:15;99708.78;;;0.78;100.00
54936;BME280;40838;50.676;7.838;2023-01-25T12:13:53;99698.41;;;1.00;98.84
54936;BME280;40838;50.676;7.838;2023-01-25T12:16:34;99691.84;;;1.55;95.98
54936;BME280;40838;50.676;7.838;2023-01-25T12:19:37;99687.38;;;1.04;97.34
54936;BME280;40838;50.676;7.838;2023-01-25T12:22:19;99678.88;;;-0.11;100.00
54936;BME280;40838;50.676;7.838;2023-01-25T12:24:57;99667.75;;;1.00;97.52
54936;BME280;40838;50.676;7.838;2023-01-25T12:27:41;99656.22;;;1.16;97.48
54936;BME280;40838;50.676;7.838;2023-01-25T12:30:21;99655.47;;;1.22;98.64
54936;BME280;40838;50.676;7.838;2023-01-25T12:32:57;99645.22;;;0.62;100.00
54936;BME280;40838;50.676;7.838;2023-01-25T12:35:38;99634.44;;;0.71;100.00
54936;BME280;40838;50.676;7.838;2023-01-25T12:38:12;99628.69;;;1.27;97.17
54936;BME280;40838;50.676;7.838;2023-01-25T12:40:47;99615.97;;;1.45;95.04
54936;BME280;40838;50.676;7.838;2023-01-25T12:43:20;99609.13;;;1.30;95.37
54936;BME280;40838;50.676;7.838;2023-01-25T12:45:49;99611.97;;;1.49;94.94
54936;BME280;40838;50.676;7.838;2023-01-25T12:48:19;99608.22;;;1.59;94.84
54936;BME280;40838;50.676;7.838;2023-01-25T12:50:53;99602.16;;;1.22;95.84
54936;BME280;40838;50.676;7.838;2023-01-25T12:53:24;99601.41;;;1.07;97.68
54936;BME280;40838;50.676;7.838;2023-01-25T12:55:55;99592.75;;;1.27;96.73
54936;BME280;40838;50.676;7.838;2023-01-25T12:58:29;99596.75;;;1.45;96.19
54936;BME280;40838;50.676;7.838;2023-01-25T13:01:03;99594.16;;;1.09;97.71
54936;BME280;40838;50.676;7.838;2023-01-25T13:03:38;99589.41;;;0.53;98.25
54936;BME280;40838;50.676;7.838;2023-01-25T13:06:15;99587.06;;;0.73;98.16
54936;BME280;40838;50.676;7.838;2023-01-25T13:08:53;99578.91;;;0.82;97.77
54936;BME280;40838;50.676;7.838;2023-01-25T13:11:28;99575.78;;;1.09;97.94
54936;BME280;40838;50.676;7.838;2023-01-25T13:14:19;99562.50;;;1.32;95.48
54936;BME280;40838;50.676;7.838;2023-01-25T13:16:53;99564.38;;;1.01;95.95
54936;BME280;40838;50.676;7.838;2023-01-25T13:19:37;99564.28;;;1.10;97.47